createdAt,value
2022-12-23T00:00:13.277Z,3.92
2022-12-23T00:02:58.126Z,3.90
2022-12-23T00:05:25.807Z,3.87
2022-12-23T00:07:53.398Z,3.86
2022-12-23T00:10:21.086Z,3.87
2022-12-23T00:12:48.719Z,3.88
2022-12-23T00:15:16.588Z,3.90
2022-12-23T00:17:45.744Z,3.92
2022-12-23T00:20:15.315Z,3.91
2022-12-23T00:22:42.965Z,3.90
2022-12-23T00:25:12.151Z,3.89
2022-12-23T00:27:39.942Z,3.89
2022-12-23T00:30:15.366Z,3.89
2022-12-23T00:32:44.666Z,3.89
2022-12-23T00:35:12.238Z,3.89
2022-12-23T00:37:39.838Z,3.88
2022-12-23T00:40:11.932Z,3.88
2022-12-23T00:42:39.557Z,3.88
2022-12-23T00:45:07.602Z,3.89
2022-12-23T00:47:35.194Z,3.90
2022-12-23T00:50:02.970Z,3.91
2022-12-23T00:52:30.709Z,3.91
2022-12-23T00:54:58.410Z,3.91
2022-12-23T00:57:26.154Z,3.93
2022-12-23T00:59:53.739Z,3.93
2022-12-23T01:02:21.574Z,3.93
2022-12-23T01:04:49.403Z,3.94
2022-12-23T01:07:16.990Z,3.95
2022-12-23T01:09:44.820Z,3.97
2022-12-23T01:12:14.127Z,3.97
2022-12-23T01:14:41.865Z,3.98
2022-12-23T01:17:09.571Z,3.98
2022-12-23T01:19:37.464Z,3.99
2022-12-23T01:22:05.089Z,3.99
2022-12-23T01:24:33.217Z,3.99
2022-12-23T01:27:00.840Z,3.97
2022-12-23T01:29:28.646Z,3.97
2022-12-23T01:31:56.329Z,3.98
2022-12-23T01:34:24.168Z,3.97
2022-12-23T01:36:51.789Z,3.96
2022-12-23T01:39:19.447Z,3.96
2022-12-23T01:41:47.071Z,3.95
2022-12-23T01:44:50.992Z,3.93
2022-12-23T01:47:23.913Z,3.93
2022-12-23T01:49:57.292Z,3.93
2022-12-23T01:52:25.182Z,3.94
2022-12-23T01:54:53.843Z,3.95
2022-12-23T01:57:21.935Z,3.97
2022-12-23T01:59:50.093Z,3.97
2022-12-23T02:02:17.843Z,3.96
2022-12-23T02:04:46.889Z,3.96
2022-12-23T02:07:14.720Z,3.96
2022-12-23T02:09:42.324Z,3.98
2022-12-23T02:12:31.422Z,4.00
2022-12-23T02:15:29.049Z,4.03
2022-12-23T02:18:27.744Z,4.06
2022-12-23T02:21:07.183Z,4.08
2022-12-23T02:23:43.510Z,4.09
2022-12-23T02:26:20.066Z,4.09
2022-12-23T02:28:47.602Z,4.09
2022-12-23T02:31:38.122Z,4.10
2022-12-23T02:34:08.528Z,4.10
2022-12-23T02:36:50.787Z,4.09
2022-12-23T02:39:27.647Z,4.09
2022-12-23T02:42:07.981Z,4.08
2022-12-23T02:44:44.860Z,4.08
2022-12-23T02:47:26.790Z,4.05
2022-12-23T02:50:04.368Z,4.04
2022-12-23T02:52:36.782Z,4.04
2022-12-23T02:55:13.294Z,4.03
2022-12-23T02:57:45.435Z,4.02
2022-12-23T03:00:14.224Z,4.01
2022-12-23T03:02:43.537Z,3.99
2022-12-23T03:05:38.219Z,3.97
2022-12-23T03:08:12.186Z,3.92
2022-12-23T03:11:11.995Z,3.87
2022-12-23T03:13:58.671Z,3.80
2022-12-23T03:16:38.300Z,3.74
2022-12-23T03:19:11.808Z,3.69
2022-12-23T03:21:46.838Z,3.65
2022-12-23T03:24:24.199Z,3.64
2022-12-23T03:27:01.173Z,3.61
2022-12-23T03:29:39.845Z,3.57
2022-12-23T03:32:08.835Z,3.57
2022-12-23T03:34:39.480Z,3.58
2022-12-23T03:37:09.514Z,3.58
2022-12-23T03:39:46.558Z,3.57
2022-12-23T03:42:20.551Z,3.57
2022-12-23T03:45:19.303Z,3.58
2022-12-23T03:47:47.273Z,3.61
2022-12-23T03:50:19.133Z,3.62
2022-12-23T03:53:01.931Z,3.64
2022-12-23T03:55:35.197Z,3.65
2022-12-23T03:58:22.235Z,3.64
2022-12-23T04:01:03.433Z,3.64
2022-12-23T04:03:49.343Z,3.61
2022-12-23T04:06:19.537Z,3.57
2022-12-23T04:08:49.696Z,3.53
2022-12-23T04:11:17.477Z,3.52
2022-12-23T04:13:47.272Z,3.53
2022-12-23T04:16:15.876Z,3.53
2022-12-23T04:18:43.554Z,3.51
2022-12-23T04:21:11.122Z,3.52
2022-12-23T04:23:38.738Z,3.53
2022-12-23T04:26:06.302Z,3.52
2022-12-23T04:28:33.912Z,3.50
2022-12-23T04:31:01.519Z,3.50
2022-12-23T04:33:29.167Z,3.50
2022-12-23T04:36:00.075Z,3.50
2022-12-23T04:38:27.807Z,3.48
2022-12-23T04:40:55.433Z,3.46
2022-12-23T04:43:23.067Z,3.45
2022-12-23T04:45:51.245Z,3.43
2022-12-23T04:48:19.304Z,3.41
2022-12-23T04:50:46.908Z,3.39
2022-12-23T04:53:14.497Z,3.36
2022-12-23T04:55:42.246Z,3.33
2022-12-23T04:58:09.917Z,3.31
2022-12-23T05:00:40.036Z,3.28
2022-12-23T05:03:07.948Z,3.25
2022-12-23T05:05:35.776Z,3.23
2022-12-23T05:08:05.256Z,3.22
2022-12-23T05:10:32.904Z,3.21
2022-12-23T05:13:00.521Z,3.20
2022-12-23T05:15:28.171Z,3.16
2022-12-23T05:17:55.736Z,3.16
2022-12-23T05:20:23.311Z,3.15
2022-12-23T05:22:50.945Z,3.12
2022-12-23T05:25:18.588Z,3.13
2022-12-23T05:27:46.197Z,3.14
2022-12-23T05:30:13.932Z,3.15
2022-12-23T05:32:41.528Z,3.14
2022-12-23T05:35:09.567Z,3.14
2022-12-23T05:37:37.213Z,3.14
2022-12-23T05:40:05.369Z,3.16
2022-12-23T05:42:33.224Z,3.19
2022-12-23T05:45:00.825Z,3.18
2022-12-23T05:47:28.498Z,3.19
2022-12-23T05:49:56.111Z,3.17
2022-12-23T05:52:23.722Z,3.16
2022-12-23T05:54:51.415Z,3.15
2022-12-23T05:57:19.041Z,3.14
2022-12-23T05:59:46.763Z,3.10
2022-12-23T06:02:14.648Z,3.06
2022-12-23T06:04:42.349Z,3.04
2022-12-23T06:07:09.954Z,3.04
2022-12-23T06:09:37.519Z,3.04
2022-12-23T06:12:05.447Z,3.02
2022-12-23T06:14:33.028Z,2.98
2022-12-23T06:17:00.814Z,2.96
2022-12-23T06:19:28.438Z,2.97
2022-12-23T06:21:56.043Z,2.95
2022-12-23T06:24:23.660Z,2.93
2022-12-23T06:26:56.771Z,2.90
2022-12-23T06:29:24.988Z,2.85
2022-12-23T06:31:52.704Z,2.80
2022-12-23T06:34:20.426Z,2.78
2022-12-23T06:36:48.779Z,2.79
2022-12-23T06:39:16.394Z,2.77
2022-12-23T06:41:44.065Z,2.77
2022-12-23T06:44:11.692Z,2.75
2022-12-23T06:46:39.354Z,2.69
2022-12-23T06:49:12.834Z,2.64
2022-12-23T06:51:41.607Z,2.65
2022-12-23T06:54:10.973Z,2.65
2022-12-23T06:56:39.004Z,2.64
2022-12-23T06:59:06.633Z,2.65
2022-12-23T07:01:34.405Z,2.68
2022-12-23T07:04:02.151Z,2.68
2022-12-23T07:06:29.804Z,2.68
2022-12-23T07:08:58.550Z,2.70
2022-12-23T07:11:26.164Z,2.73
2022-12-23T07:13:53.750Z,2.72
2022-12-23T07:16:21.367Z,2.68
2022-12-23T07:18:48.939Z,2.65
2022-12-23T07:21:26.535Z,2.61
2022-12-23T07:23:56.604Z,2.59
2022-12-23T07:26:24.236Z,2.58
2022-12-23T07:28:51.846Z,2.57
2022-12-23T07:31:19.525Z,2.57
2022-12-23T07:33:47.159Z,2.56
2022-12-23T07:36:14.801Z,2.55
2022-12-23T07:38:42.397Z,2.53
2022-12-23T07:41:10.032Z,2.55
2022-12-23T07:43:37.688Z,2.56
2022-12-23T07:46:09.447Z,2.57
2022-12-23T07:48:37.125Z,2.58
2022-12-23T07:51:05.148Z,2.60
2022-12-23T07:53:32.813Z,2.63
2022-12-23T07:56:00.398Z,2.66
2022-12-23T07:58:28.022Z,2.69
2022-12-23T08:01:03.552Z,2.67
2022-12-23T08:03:31.619Z,2.63
2022-12-23T08:06:07.869Z,2.63
2022-12-23T08:08:35.998Z,2.65
2022-12-23T08:11:05.863Z,2.68
2022-12-23T08:13:36.601Z,2.70
2022-12-23T08:16:05.847Z,2.74
2022-12-23T08:18:35.961Z,2.79
2022-12-23T08:21:10.279Z,2.86
2022-12-23T08:23:37.875Z,2.91
2022-12-23T08:26:07.419Z,2.91
2022-12-23T08:28:39.033Z,2.93
2022-12-23T08:31:09.694Z,2.94
2022-12-23T08:33:39.109Z,2.96
2022-12-23T08:36:08.573Z,2.97
2022-12-23T08:38:37.185Z,2.98
2022-12-23T08:41:10.113Z,2.98
2022-12-23T08:43:41.165Z,2.95
2022-12-23T08:46:09.198Z,2.93
2022-12-23T08:48:37.545Z,2.89
2022-12-23T08:51:08.469Z,2.84
2022-12-23T08:53:37.828Z,2.84
2022-12-23T08:56:08.541Z,2.80
2022-12-23T08:58:40.737Z,2.79
2022-12-23T09:01:11.796Z,2.84
2022-12-23T09:03:40.867Z,2.88
2022-12-23T09:06:13.228Z,2.89
2022-12-23T09:08:41.559Z,2.93
2022-12-23T09:11:10.443Z,2.97
2022-12-23T09:13:38.622Z,3.04
2022-12-23T09:16:08.137Z,3.05
2022-12-23T09:18:36.125Z,3.05
2022-12-23T09:21:06.262Z,3.06
2022-12-23T09:23:34.776Z,3.08
2022-12-23T09:26:04.916Z,3.10
2022-12-23T09:28:32.626Z,3.16
2022-12-23T09:31:11.305Z,3.19
2022-12-23T09:33:39.597Z,3.26
2022-12-23T09:36:07.643Z,3.32
2022-12-23T09:38:35.362Z,3.35
2022-12-23T09:41:23.202Z,3.35
2022-12-23T09:44:02.876Z,3.33
2022-12-23T09:46:33.774Z,3.33
2022-12-23T09:49:06.661Z,3.35
2022-12-23T09:51:34.548Z,3.34
2022-12-23T09:54:17.965Z,3.30
2022-12-23T09:57:05.647Z,3.30
2022-12-23T10:00:04.940Z,3.32
2022-12-23T10:03:00.184Z,3.36
2022-12-23T10:05:30.862Z,3.38
2022-12-23T10:08:07.592Z,3.36
2022-12-23T10:10:59.727Z,3.33
2022-12-23T10:13:39.501Z,3.33
2022-12-23T10:16:13.146Z,3.33
2022-12-23T10:19:05.298Z,3.32
2022-12-23T10:21:35.727Z,3.30
2022-12-23T10:24:15.991Z,3.27
2022-12-23T10:26:53.357Z,3.27
2022-12-23T10:29:26.599Z,3.31
2022-12-23T10:32:31.523Z,3.34
2022-12-23T10:35:28.110Z,3.37
2022-12-23T10:38:19.980Z,3.37
2022-12-23T10:40:53.633Z,3.39
2022-12-23T10:43:27.184Z,3.40
2022-12-23T10:46:16.167Z,3.43
2022-12-23T10:49:02.835Z,3.49
2022-12-23T10:51:57.212Z,3.52
2022-12-23T10:54:33.596Z,3.58
2022-12-23T10:57:02.639Z,3.61
2022-12-23T10:59:34.940Z,3.61
2022-12-23T11:02:02.669Z,3.55
2022-12-23T11:04:35.511Z,3.53
2022-12-23T11:07:41.999Z,3.54
2022-12-23T11:10:05.283Z,3.56
2022-12-23T11:12:45.019Z,3.57
2022-12-23T11:15:40.349Z,3.60
2022-12-23T11:18:19.385Z,3.62
2022-12-23T11:21:05.828Z,3.64
2022-12-23T11:23:35.194Z,3.69
2022-12-23T11:26:08.683Z,3.73
2022-12-23T11:28:52.459Z,3.77
2022-12-23T11:31:27.234Z,3.75
2022-12-23T11:34:00.665Z,3.75
2022-12-23T11:36:30.337Z,3.75
2022-12-23T11:39:23.942Z,3.78
2022-12-23T11:41:55.681Z,3.84
2022-12-23T11:44:32.070Z,3.89
2022-12-23T11:47:23.992Z,3.93
2022-12-23T11:49:57.253Z,3.97
2022-12-23T11:52:27.563Z,3.99
2022-12-23T11:54:57.769Z,4.04
2022-12-23T11:57:48.061Z,4.05
2022-12-23T12:00:23.817Z,4.04
2022-12-23T12:02:54.891Z,4.04
2022-12-23T12:05:24.965Z,4.07
2022-12-23T12:07:53.174Z,4.09
2022-12-23T12:10:33.527Z,4.12
2022-12-23T12:13:06.093Z,4.12
2022-12-23T12:16:02.226Z,4.11
2022-12-23T12:18:30.013Z,4.11
2022-12-23T12:21:03.907Z,4.11
2022-12-23T12:23:46.394Z,4.13
2022-12-23T12:26:31.166Z,4.21
2022-12-23T12:29:16.120Z,4.29
2022-12-23T12:31:53.100Z,4.35
2022-12-23T12:34:45.783Z,4.41
2022-12-23T12:37:20.049Z,4.44
2022-12-23T12:39:58.621Z,4.46
2022-12-23T12:42:34.415Z,4.49
2022-12-23T12:45:17.267Z,4.48
2022-12-23T12:48:13.158Z,4.46
2022-12-23T12:51:03.000Z,4.46
2022-12-23T12:53:32.459Z,4.46
2022-12-23T12:56:12.131Z,4.47
2022-12-23T12:58:42.994Z,4.50
2022-12-23T13:01:42.759Z,4.52
2022-12-23T13:04:29.301Z,4.54
2022-12-23T13:06:59.583Z,4.54
2022-12-23T13:09:55.414Z,4.53
2022-12-23T13:12:54.192Z,4.52
2022-12-23T13:15:37.931Z,4.50
2022-12-23T13:18:12.769Z,4.50
2022-12-23T13:20:52.230Z,4.51
2022-12-23T13:23:46.361Z,4.55
2022-12-23T13:26:20.195Z,4.59
2022-12-23T13:28:54.977Z,4.64
2022-12-23T13:31:37.575Z,4.69
2022-12-23T13:34:46.342Z,4.70
2022-12-23T13:37:54.039Z,4.72
2022-12-23T13:40:42.875Z,4.73
2022-12-23T13:43:15.181Z,4.73
2022-12-23T13:45:45.373Z,4.74
2022-12-23T13:49:03.734Z,4.76
2022-12-23T13:51:48.687Z,4.78
2022-12-23T13:54:39.266Z,4.78
2022-12-23T13:57:16.790Z,4.78
2022-12-23T14:00:04.639Z,4.80
2022-12-23T14:02:36.169Z,4.84
2022-12-23T14:05:10.483Z,4.88
2022-12-23T14:07:44.755Z,4.91
2022-12-23T14:10:19.968Z,4.96
2022-12-23T14:12:48.163Z,4.99
2022-12-23T14:15:21.789Z,5.01
2022-12-23T14:18:02.722Z,5.04
2022-12-23T14:20:44.332Z,5.05
2022-12-23T14:23:36.715Z,5.07
2022-12-23T14:26:29.220Z,5.07
2022-12-23T14:29:02.768Z,5.09
2022-12-23T14:31:33.468Z,5.09
2022-12-23T14:34:17.797Z,5.10
2022-12-23T14:37:22.763Z,5.09
2022-12-23T14:39:51.833Z,5.08
2022-12-23T14:42:42.813Z,5.09
2022-12-23T14:45:35.996Z,5.10
2022-12-23T14:48:35.909Z,5.08
2022-12-23T14:51:13.721Z,5.05
2022-12-23T14:53:59.852Z,5.04
2022-12-23T14:56:40.103Z,5.02
2022-12-23T14:59:22.428Z,4.98
2022-12-23T15:01:53.417Z,4.96
2022-12-23T15:04:28.598Z,4.96
2022-12-23T15:07:04.511Z,4.98
2022-12-23T15:09:37.440Z,4.99
2022-12-23T15:12:13.749Z,4.99
2022-12-23T15:14:48.103Z,5.00
2022-12-23T15:17:22.508Z,5.03
2022-12-23T15:19:50.127Z,5.04
2022-12-23T15:22:25.193Z,5.02
2022-12-23T15:24:57.893Z,5.00
2022-12-23T15:27:29.714Z,4.99
2022-12-23T15:29:58.129Z,4.99
2022-12-23T15:32:27.736Z,4.99
2022-12-23T15:35:06.152Z,4.98
2022-12-23T15:37:34.680Z,4.98
2022-12-23T15:40:12.540Z,4.99
2022-12-23T15:42:47.786Z,5.00
2022-12-23T15:45:39.871Z,5.00
2022-12-23T15:48:24.508Z,4.99
2022-12-23T15:50:56.097Z,4.98
2022-12-23T15:53:34.891Z,4.99
2022-12-23T15:56:34.280Z,4.99
2022-12-23T15:59:03.943Z,4.99
2022-12-23T16:01:39.694Z,4.95
2022-12-23T16:04:08.001Z,4.93
2022-12-23T16:06:37.114Z,4.91
2022-12-23T16:09:16.932Z,4.89
2022-12-23T16:12:00.155Z,4.90
2022-12-23T16:14:30.477Z,4.90
2022-12-23T16:17:00.009Z,4.90
2022-12-23T16:19:45.696Z,4.90
2022-12-23T16:22:22.448Z,4.90
2022-12-23T16:24:56.124Z,4.91
2022-12-23T16:27:40.560Z,4.90
2022-12-23T16:30:24.010Z,4.91
2022-12-23T16:32:54.912Z,4.92
2022-12-23T16:35:27.900Z,4.89
2022-12-23T16:38:16.008Z,4.92
2022-12-23T16:40:48.869Z,4.95
2022-12-23T16:43:17.634Z,4.96
2022-12-23T16:45:47.079Z,4.94
2022-12-23T16:48:27.926Z,4.97
2022-12-23T16:50:55.632Z,5.00
2022-12-23T16:53:23.484Z,5.00
2022-12-23T16:55:55.275Z,5.03
2022-12-23T16:58:26.080Z,5.04
2022-12-23T17:00:53.921Z,5.02
2022-12-23T17:03:21.707Z,5.00
2022-12-23T17:05:49.412Z,4.97
2022-12-23T17:08:17.066Z,4.94
2022-12-23T17:10:45.110Z,4.90
2022-12-23T17:13:16.510Z,4.89
2022-12-23T17:15:44.535Z,4.88
2022-12-23T17:18:14.920Z,4.89
2022-12-23T17:20:45.272Z,4.89
2022-12-23T17:23:31.069Z,4.92
2022-12-23T17:25:58.865Z,4.94
2022-12-23T17:28:32.109Z,4.97
2022-12-23T17:31:00.522Z,4.97
2022-12-23T17:33:31.102Z,4.96
2022-12-23T17:35:59.756Z,4.96
2022-12-23T17:38:27.483Z,4.96
2022-12-23T17:40:55.541Z,4.93
2022-12-23T17:43:23.139Z,4.91
2022-12-23T17:45:50.938Z,4.91
2022-12-23T17:48:23.133Z,4.91
2022-12-23T17:50:52.910Z,4.89
2022-12-23T17:53:20.503Z,4.84
2022-12-23T17:55:48.181Z,4.80
2022-12-23T17:58:16.089Z,4.77
2022-12-23T18:00:43.727Z,4.75
2022-12-23T18:03:22.178Z,4.73
2022-12-23T18:05:52.960Z,4.72
2022-12-23T18:08:24.977Z,4.73
2022-12-23T18:10:52.634Z,4.77
2022-12-23T18:13:21.162Z,4.78
2022-12-23T18:15:49.950Z,4.78
2022-12-23T18:18:28.694Z,4.77
2022-12-23T18:20:59.106Z,4.77
2022-12-23T18:23:29.833Z,4.79
2022-12-23T18:25:58.632Z,4.78
2022-12-23T18:28:26.851Z,4.74
2022-12-23T18:30:58.130Z,4.74
2022-12-23T18:33:25.914Z,4.74
2022-12-23T18:35:53.513Z,4.74
2022-12-23T18:38:21.401Z,4.71
2022-12-23T18:40:49.002Z,4.72
2022-12-23T18:43:25.056Z,4.73
2022-12-23T18:45:53.948Z,4.72
2022-12-23T18:48:21.962Z,4.73
2022-12-23T18:50:49.674Z,4.72
2022-12-23T18:53:24.191Z,4.70
2022-12-23T18:55:54.095Z,4.67
2022-12-23T18:58:24.008Z,4.65
2022-12-23T19:00:52.108Z,4.60
2022-12-23T19:03:30.891Z,4.58
2022-12-23T19:05:59.546Z,4.53
2022-12-23T19:08:27.964Z,4.49
2022-12-23T19:10:55.848Z,4.44
2022-12-23T19:13:23.833Z,4.41
2022-12-23T19:15:52.147Z,4.41
2022-12-23T19:18:21.745Z,4.39
2022-12-23T19:20:49.681Z,4.37
2022-12-23T19:23:17.626Z,4.33
2022-12-23T19:25:52.734Z,4.33
2022-12-23T19:28:22.963Z,4.36
2022-12-23T19:30:51.034Z,4.39
2022-12-23T19:33:18.714Z,4.41
2022-12-23T19:35:46.349Z,4.42
2022-12-23T19:38:14.029Z,4.42
2022-12-23T19:40:41.621Z,4.39
2022-12-23T19:43:09.214Z,4.40
2022-12-23T19:45:36.788Z,4.36
2022-12-23T19:48:04.664Z,4.33
2022-12-23T19:50:32.410Z,4.26
2022-12-23T19:52:59.998Z,4.23
2022-12-23T19:55:27.586Z,4.21
2022-12-23T19:57:55.200Z,4.21
2022-12-23T20:00:22.808Z,4.24
2022-12-23T20:02:56.653Z,4.26
2022-12-23T20:05:26.197Z,4.29
2022-12-23T20:07:53.762Z,4.30
2022-12-23T20:10:21.414Z,4.30
2022-12-23T20:12:49.051Z,4.28
2022-12-23T20:15:16.723Z,4.28
2022-12-23T20:17:44.387Z,4.30
2022-12-23T20:20:12.221Z,4.34
2022-12-23T20:22:40.148Z,4.39
2022-12-23T20:25:08.126Z,4.41
2022-12-23T20:27:35.733Z,4.44
2022-12-23T20:30:03.964Z,4.45
2022-12-23T20:32:31.569Z,4.44
2022-12-23T20:34:59.180Z,4.43
2022-12-23T20:37:26.768Z,4.43
2022-12-23T20:39:54.395Z,4.44
2022-12-23T20:42:22.037Z,4.46
2022-12-23T20:44:49.638Z,4.49
2022-12-23T20:47:17.229Z,4.51
2022-12-23T20:49:44.862Z,4.51
2022-12-23T20:52:12.492Z,4.52
2022-12-23T20:54:40.085Z,4.51
2022-12-23T20:57:07.683Z,4.47
2022-12-23T20:59:35.291Z,4.42
2022-12-23T21:02:02.898Z,4.39
2022-12-23T21:04:30.510Z,4.36
2022-12-23T21:06:58.139Z,4.33
2022-12-23T21:09:25.791Z,4.33
2022-12-23T21:11:53.425Z,4.37
2022-12-23T21:14:21.140Z,4.39
2022-12-23T21:16:48.795Z,4.41
2022-12-23T21:19:19.810Z,4.44
2022-12-23T21:21:48.466Z,4.45
2022-12-23T21:24:16.718Z,4.45
2022-12-23T21:26:47.604Z,4.41
2022-12-23T21:29:17.905Z,4.37
2022-12-23T21:31:45.921Z,4.36
2022-12-23T21:34:13.703Z,4.36
2022-12-23T21:36:42.303Z,4.35
2022-12-23T21:39:15.204Z,4.33
2022-12-23T21:41:42.802Z,4.34
2022-12-23T21:44:12.259Z,4.34
2022-12-23T21:46:39.956Z,4.36
2022-12-23T21:49:07.663Z,4.36
2022-12-23T21:51:40.234Z,4.36
2022-12-23T21:54:10.855Z,4.35
2022-12-23T21:56:39.868Z,4.34
2022-12-23T21:59:12.857Z,4.33
2022-12-23T22:01:41.901Z,4.32
2022-12-23T22:04:09.678Z,4.31
2022-12-23T22:06:40.482Z,4.33
2022-12-23T22:09:08.388Z,4.32
2022-12-23T22:11:37.548Z,4.32
2022-12-23T22:14:07.515Z,4.30
2022-12-23T22:16:35.586Z,4.29
2022-12-23T22:19:05.107Z,4.29
2022-12-23T22:21:34.203Z,4.30
2022-12-23T22:24:02.850Z,4.29
2022-12-23T22:26:32.580Z,4.29
2022-12-23T22:29:02.939Z,4.30
2022-12-23T22:31:38.878Z,4.30
2022-12-23T22:34:08.276Z,4.29
2022-12-23T22:36:36.297Z,4.29
2022-12-23T22:39:04.109Z,4.30
2022-12-23T22:41:32.155Z,4.32
2022-12-23T22:44:00.086Z,4.32
2022-12-23T22:46:28.020Z,4.30
2022-12-23T22:48:56.212Z,4.32
2022-12-23T22:51:26.961Z,4.34
2022-12-23T22:53:55.134Z,4.35
2022-12-23T22:56:24.230Z,4.37
2022-12-23T22:58:52.866Z,4.39
2022-12-23T23:01:24.853Z,4.43
2022-12-23T23:03:53.765Z,4.42
2022-12-23T23:06:21.357Z,4.40
2022-12-23T23:08:48.995Z,4.37
2022-12-23T23:11:16.833Z,4.34
2022-12-23T23:13:44.456Z,4.32
2022-12-23T23:16:12.134Z,4.31
2022-12-23T23:18:39.767Z,4.29
2022-12-23T23:21:08.951Z,4.29
2022-12-23T23:23:36.663Z,4.27
2022-12-23T23:26:04.764Z,4.26
2022-12-23T23:28:32.406Z,4.29
2022-12-23T23:31:32.067Z,4.34
2022-12-23T23:33:47.818Z,4.38
2022-12-23T23:36:15.575Z,4.40
2022-12-23T23:38:43.206Z,4.42
2022-12-23T23:41:10.801Z,4.42
2022-12-23T23:43:38.425Z,4.43
2022-12-23T23:46:06.107Z,4.45
2022-12-23T23:48:33.708Z,4.49
2022-12-23T23:51:05.975Z,4.54
2022-12-23T23:53:33.614Z,4.56
2022-12-23T23:56:06.232Z,4.55
2022-12-23T23:58:35.602Z,4.55
